sensor_id;sensor_type;location;lat;lon;timestamp;temperature;humidity
10233;DHT22;5161;48.174;11.756;2024-03-08T00:00:40;6.30;70.40
10233;DHT22;5161;48.174;11.756;2024-03-08T00:03:08;6.30;70.70
10233;DHT22;5161;48.174;11.756;2024-03-08T00:05:35;6.20;70.80
10233;DHT22;5161;48.174;11.756;2024-03-08T00:08:01;6.20;70.50
10233;DHT22;5161;48.174;11.756;2024-03-08T00:10:27;6.20;70.70
10233;DHT22;5161;48.174;11.756;2024-03-08T00:12:54;6.20;70.80
10233;DHT22;5161;48.174;11.756;2024-03-08T00:15:20;6.10;70.60
10233;DHT22;5161;48.174;11.756;2024-03-08T00:17:46;6.10;70.40
10233;DHT22;5161;48.174;11.756;2024-03-08T00:20:12;6.10;70.60
10233;DHT22;5161;48.174;11.756;2024-03-08T00:22:38;6.10;70.80
10233;DHT22;5161;48.174;11.756;2024-03-08T00:25:05;6.10;70.80
10233;DHT22;5161;48.174;11.756;2024-03-08T00:27:32;6.10;69.90
10233;DHT22;5161;48.174;11.756;2024-03-08T00:29:58;6.00;70.30
10233;DHT22;5161;48.174;11.756;2024-03-08T00:32:23;6.00;70.10
10233;DHT22;5161;48.174;11.756;2024-03-08T00:34:50;6.00;70.30
10233;DHT22;5161;48.174;11.756;2024-03-08T00:37:20;6.00;70.30
10233;DHT22;5161;48.174;11.756;2024-03-08T00:39:45;6.00;70.30
10233;DHT22;5161;48.174;11.756;2024-03-08T00:42:11;5.90;70.00
10233;DHT22;5161;48.174;11.756;2024-03-08T00:44:36;6.00;70.40
10233;DHT22;5161;48.174;11.756;2024-03-08T00:47:03;5.90;69.80
10233;DHT22;5161;48.174;11.756;2024-03-08T00:49:30;6.00;70.10
10233;DHT22;5161;48.174;11.756;2024-03-08T00:51:55;6.00;70.50
10233;DHT22;5161;48.174;11.756;2024-03-08T00:54:21;6.10;70.70
10233;DHT22;5161;48.174;11.756;2024-03-08T00:56:46;6.10;70.60
10233;DHT22;5161;48.174;11.756;2024-03-08T00:59:12;6.10;70.80
10233;DHT22;5161;48.174;11.756;2024-03-08T01:01:40;6.10;70.70
10233;DHT22;5161;48.174;11.756;2024-03-08T01:04:05;6.10;70.70
10233;DHT22;5161;48.174;11.756;2024-03-08T01:06:31;6.10;70.70
10233;DHT22;5161;48.174;11.756;2024-03-08T01:08:57;6.10;70.80
10233;DHT22;5161;48.174;11.756;2024-03-08T01:11:22;6.00;70.80
10233;DHT22;5161;48.174;11.756;2024-03-08T01:13:48;6.00;70.80
10233;DHT22;5161;48.174;11.756;2024-03-08T01:16:15;6.00;70.60
10233;DHT22;5161;48.174;11.756;2024-03-08T01:18:42;6.00;70.10
10233;DHT22;5161;48.174;11.756;2024-03-08T01:21:08;6.00;70.80
10233;DHT22;5161;48.174;11.756;2024-03-08T01:23:34;6.00;70.50
10233;DHT22;5161;48.174;11.756;2024-03-08T01:26:00;6.00;70.40
10233;DHT22;5161;48.174;11.756;2024-03-08T01:28:28;5.90;69.90
10233;DHT22;5161;48.174;11.756;2024-03-08T01:30:53;5.90;69.80
10233;DHT22;5161;48.174;11.756;2024-03-08T01:33:23;5.90;70.00
10233;DHT22;5161;48.174;11.756;2024-03-08T01:35:54;5.90;69.60
10233;DHT22;5161;48.174;11.756;2024-03-08T01:38:20;5.90;69.70
10233;DHT22;5161;48.174;11.756;2024-03-08T01:40:49;5.90;70.50
10233;DHT22;5161;48.174;11.756;2024-03-08T01:43:20;5.80;70.10
10233;DHT22;5161;48.174;11.756;2024-03-08T01:45:46;5.80;68.20
10233;DHT22;5161;48.174;11.756;2024-03-08T01:48:12;5.90;70.20
10233;DHT22;5161;48.174;11.756;2024-03-08T01:50:38;5.90;70.20
10233;DHT22;5161;48.174;11.756;2024-03-08T01:53:05;5.90;70.00
10233;DHT22;5161;48.174;11.756;2024-03-08T01:55:32;5.90;70.20
10233;DHT22;5161;48.174;11.756;2024-03-08T01:57:59;5.90;70.50
10233;DHT22;5161;48.174;11.756;2024-03-08T02:00:25;5.90;69.60
10233;DHT22;5161;48.174;11.756;2024-03-08T02:02:54;5.80;69.40
10233;DHT22;5161;48.174;11.756;2024-03-08T02:05:20;5.80;68.80
10233;DHT22;5161;48.174;11.756;2024-03-08T02:07:46;5.70;69.40
10233;DHT22;5161;48.174;11.756;2024-03-08T02:10:12;5.70;69.80
10233;DHT22;5161;48.174;11.756;2024-03-08T02:12:40;5.80;69.80
10233;DHT22;5161;48.174;11.756;2024-03-08T02:15:06;5.80;70.10
10233;DHT22;5161;48.174;11.756;2024-03-08T02:17:32;5.80;69.80
10233;DHT22;5161;48.174;11.756;2024-03-08T02:19:59;5.80;70.20
10233;DHT22;5161;48.174;11.756;2024-03-08T02:22:28;5.80;70.30
10233;DHT22;5161;48.174;11.756;2024-03-08T02:24:55;5.80;70.50
10233;DHT22;5161;48.174;11.756;2024-03-08T02:27:24;5.80;70.70
10233;DHT22;5161;48.174;11.756;2024-03-08T02:29:52;5.80;69.50
10233;DHT22;5161;48.174;11.756;2024-03-08T02:32:24;5.80;70.80
10233;DHT22;5161;48.174;11.756;2024-03-08T02:34:50;5.80;71.20
10233;DHT22;5161;48.174;11.756;2024-03-08T02:37:16;5.90;70.30
10233;DHT22;5161;48.174;11.756;2024-03-08T02:39:42;5.80;70.10
10233;DHT22;5161;48.174;11.756;2024-03-08T02:42:08;5.80;70.70
10233;DHT22;5161;48.174;11.756;2024-03-08T02:44:33;5.80;70.80
10233;DHT22;5161;48.174;11.756;2024-03-08T02:47:00;5.80;70.90
10233;DHT22;5161;48.174;11.756;2024-03-08T02:49:26;5.70;70.50
10233;DHT22;5161;48.174;11.756;2024-03-08T02:51:54;5.70;70.10
10233;DHT22;5161;48.174;11.756;2024-03-08T02:54:22;5.70;70.40
10233;DHT22;5161;48.174;11.756;2024-03-08T02:56:48;5.70;70.40
10233;DHT22;5161;48.174;11.756;2024-03-08T02:59:15;5.50;69.30
10233;DHT22;5161;48.174;11.756;2024-03-08T03:01:43;5.50;69.30
10233;DHT22;5161;48.174;11.756;2024-03-08T03:04:09;5.50;69.30
10233;DHT22;5161;48.174;11.756;2024-03-08T03:06:34;5.50;69.90
10233;DHT22;5161;48.174;11.756;2024-03-08T03:09:01;5.50;69.60
10233;DHT22;5161;48.174;11.756;2024-03-08T03:11:26;5.50;69.40
10233;DHT22;5161;48.174;11.756;2024-03-08T03:13:52;5.50;69.50
10233;DHT22;5161;48.174;11.756;2024-03-08T03:16:19;5.60;69.60
10233;DHT22;5161;48.174;11.756;2024-03-08T03:18:45;5.60;69.30
10233;DHT22;5161;48.174;11.756;2024-03-08T03:21:11;5.60;69.70
10233;DHT22;5161;48.174;11.756;2024-03-08T03:23:41;5.60;70.00
10233;DHT22;5161;48.174;11.756;2024-03-08T03:26:10;5.60;70.00
10233;DHT22;5161;48.174;11.756;2024-03-08T03:28:37;5.50;69.10
10233;DHT22;5161;48.174;11.756;2024-03-08T03:31:08;5.50;69.40
10233;DHT22;5161;48.174;11.756;2024-03-08T03:33:39;5.50;68.80
10233;DHT22;5161;48.174;11.756;2024-03-08T03:36:05;5.50;69.60
10233;DHT22;5161;48.174;11.756;2024-03-08T03:38:31;5.50;69.10
10233;DHT22;5161;48.174;11.756;2024-03-08T03:40:57;5.50;69.20
10233;DHT22;5161;48.174;11.756;2024-03-08T03:43:29;5.50;69.70
10233;DHT22;5161;48.174;11.756;2024-03-08T03:45:55;5.50;69.50
10233;DHT22;5161;48.174;11.756;2024-03-08T03:48:21;5.50;69.20
10233;DHT22;5161;48.174;11.756;2024-03-08T03:50:46;5.50;69.00
10233;DHT22;5161;48.174;11.756;2024-03-08T03:53:12;5.50;69.40
10233;DHT22;5161;48.174;11.756;2024-03-08T03:55:38;5.50;69.20
10233;DHT22;5161;48.174;11.756;2024-03-08T03:58:04;5.40;69.30
10233;DHT22;5161;48.174;11.756;2024-03-08T04:00:30;5.40;69.10
10233;DHT22;5161;48.174;11.756;2024-03-08T04:02:55;5.40;69.20
10233;DHT22;5161;48.174;11.756;2024-03-08T04:05:24;5.40;69.30
10233;DHT22;5161;48.174;11.756;2024-03-08T04:07:50;5.40;69.20
10233;DHT22;5161;48.174;11.756;2024-03-08T04:10:15;5.40;69.20
10233;DHT22;5161;48.174;11.756;2024-03-08T04:12:41;5.40;69.40
10233;DHT22;5161;48.174;11.756;2024-03-08T04:15:07;5.40;69.30
10233;DHT22;5161;48.174;11.756;2024-03-08T04:17:33;5.40;69.10
10233;DHT22;5161;48.174;11.756;2024-03-08T04:20:03;5.30;68.80
10233;DHT22;5161;48.174;11.756;2024-03-08T04:22:34;5.30;68.90
10233;DHT22;5161;48.174;11.756;2024-03-08T04:25:01;5.30;67.90
10233;DHT22;5161;48.174;11.756;2024-03-08T04:27:27;5.30;68.60
10233;DHT22;5161;48.174;11.756;2024-03-08T04:29:52;5.30;68.80
10233;DHT22;5161;48.174;11.756;2024-03-08T04:32:18;5.30;68.60
10233;DHT22;5161;48.174;11.756;2024-03-08T04:34:44;5.20;68.40
10233;DHT22;5161;48.174;11.756;2024-03-08T04:37:09;5.20;68.00
10233;DHT22;5161;48.174;11.756;2024-03-08T04:39:38;5.20;67.90
10233;DHT22;5161;48.174;11.756;2024-03-08T04:42:04;5.20;68.20
10233;DHT22;5161;48.174;11.756;2024-03-08T04:44:32;5.20;67.10
10233;DHT22;5161;48.174;11.756;2024-03-08T04:46:58;5.10;67.50
10233;DHT22;5161;48.174;11.756;2024-03-08T04:49:25;5.10;67.40
10233;DHT22;5161;48.174;11.756;2024-03-08T04:51:51;5.10;67.70
10233;DHT22;5161;48.174;11.756;2024-03-08T04:54:16;5.10;67.50
10233;DHT22;5161;48.174;11.756;2024-03-08T04:56:42;5.10;67.20
10233;DHT22;5161;48.174;11.756;2024-03-08T04:59:07;5.10;67.40
10233;DHT22;5161;48.174;11.756;2024-03-08T05:01:34;5.10;67.50
10233;DHT22;5161;48.174;11.756;2024-03-08T05:03:59;5.10;67.30
10233;DHT22;5161;48.174;11.756;2024-03-08T05:06:25;5.10;67.30
10233;DHT22;5161;48.174;11.756;2024-03-08T05:08:50;5.10;67.70
10233;DHT22;5161;48.174;11.756;2024-03-08T05:11:16;5.20;67.80
10233;DHT22;5161;48.174;11.756;2024-03-08T05:13:41;5.20;68.10
10233;DHT22;5161;48.174;11.756;2024-03-08T05:16:07;5.20;68.10
10233;DHT22;5161;48.174;11.756;2024-03-08T05:18:33;5.20;68.00
10233;DHT22;5161;48.174;11.756;2024-03-08T05:20:59;5.10;67.70
10233;DHT22;5161;48.174;11.756;2024-03-08T05:23:25;5.20;68.30
10233;DHT22;5161;48.174;11.756;2024-03-08T05:25:50;5.10;68.20
10233;DHT22;5161;48.174;11.756;2024-03-08T05:28:17;5.10;68.10
10233;DHT22;5161;48.174;11.756;2024-03-08T05:30:42;5.10;67.90
10233;DHT22;5161;48.174;11.756;2024-03-08T05:33:08;5.10;68.10
10233;DHT22;5161;48.174;11.756;2024-03-08T05:35:36;5.10;67.50
10233;DHT22;5161;48.174;11.756;2024-03-08T05:38:02;5.10;68.20
10233;DHT22;5161;48.174;11.756;2024-03-08T05:40:28;5.10;68.10
10233;DHT22;5161;48.174;11.756;2024-03-08T05:42:57;5.10;68.30
10233;DHT22;5161;48.174;11.756;2024-03-08T05:45:23;5.10;68.50
10233;DHT22;5161;48.174;11.756;2024-03-08T05:47:50;5.10;68.70
10233;DHT22;5161;48.174;11.756;2024-03-08T05:50:17;5.10;68.90
10233;DHT22;5161;48.174;11.756;2024-03-08T05:52:43;5.10;68.70
10233;DHT22;5161;48.174;11.756;2024-03-08T05:55:09;5.10;68.90
10233;DHT22;5161;48.174;11.756;2024-03-08T05:57:35;5.10;69.00
10233;DHT22;5161;48.174;11.756;2024-03-08T06:00:03;5.10;69.00
10233;DHT22;5161;48.174;11.756;2024-03-08T06:02:29;5.10;68.30
10233;DHT22;5161;48.174;11.756;2024-03-08T06:04:55;5.10;69.50
10233;DHT22;5161;48.174;11.756;2024-03-08T06:07:20;5.10;68.90
10233;DHT22;5161;48.174;11.756;2024-03-08T06:09:46;5.10;69.20
10233;DHT22;5161;48.174;11.756;2024-03-08T06:12:12;5.10;69.10
10233;DHT22;5161;48.174;11.756;2024-03-08T06:14:37;5.10;68.80
10233;DHT22;5161;48.174;11.756;2024-03-08T06:17:03;5.10;69.10
10233;DHT22;5161;48.174;11.756;2024-03-08T06:19:32;5.10;68.40
10233;DHT22;5161;48.174;11.756;2024-03-08T06:21:58;5.10;69.10
10233;DHT22;5161;48.174;11.756;2024-03-08T06:24:23;5.10;68.80
10233;DHT22;5161;48.174;11.756;2024-03-08T06:26:49;5.10;69.00
10233;DHT22;5161;48.174;11.756;2024-03-08T06:29:14;5.10;69.20
10233;DHT22;5161;48.174;11.756;2024-03-08T06:31:40;5.10;69.40
10233;DHT22;5161;48.174;11.756;2024-03-08T06:34:06;5.20;70.50
10233;DHT22;5161;48.174;11.756;2024-03-08T06:36:33;5.30;70.70
10233;DHT22;5161;48.174;11.756;2024-03-08T06:38:58;5.30;70.20
10233;DHT22;5161;48.174;11.756;2024-03-08T06:41:24;5.30;70.20
10233;DHT22;5161;48.174;11.756;2024-03-08T06:43:50;5.30;70.10
10233;DHT22;5161;48.174;11.756;2024-03-08T06:46:17;5.20;69.40
10233;DHT22;5161;48.174;11.756;2024-03-08T06:48:43;5.20;69.10
10233;DHT22;5161;48.174;11.756;2024-03-08T06:51:11;5.20;69.20
10233;DHT22;5161;48.174;11.756;2024-03-08T06:53:36;5.20;69.10
10233;DHT22;5161;48.174;11.756;2024-03-08T06:56:04;5.30;69.30
10233;DHT22;5161;48.174;11.756;2024-03-08T06:58:29;5.20;69.60
10233;DHT22;5161;48.174;11.756;2024-03-08T07:00:55;5.20;69.30
10233;DHT22;5161;48.174;11.756;2024-03-08T07:03:24;5.30;69.20
10233;DHT22;5161;48.174;11.756;2024-03-08T07:05:49;5.30;69.30
10233;DHT22;5161;48.174;11.756;2024-03-08T07:08:15;5.30;69.80
10233;DHT22;5161;48.174;11.756;2024-03-08T07:10:41;5.30;69.90
10233;DHT22;5161;48.174;11.756;2024-03-08T07:13:08;5.30;70.00
10233;DHT22;5161;48.174;11.756;2024-03-08T07:15:33;5.30;69.70
10233;DHT22;5161;48.174;11.756;2024-03-08T07:18:00;5.30;69.80
10233;DHT22;5161;48.174;11.756;2024-03-08T07:20:26;5.40;69.90
10233;DHT22;5161;48.174;11.756;2024-03-08T07:22:52;5.40;70.40
10233;DHT22;5161;48.174;11.756;2024-03-08T07:25:18;5.40;70.80
10233;DHT22;5161;48.174;11.756;2024-03-08T07:27:50;5.40;70.40
10233;DHT22;5161;48.174;11.756;2024-03-08T07:30:23;5.40;68.90
10233;DHT22;5161;48.174;11.756;2024-03-08T07:33:07;5.40;68.60
10233;DHT22;5161;48.174;11.756;2024-03-08T07:35:37;5.40;70.30
10233;DHT22;5161;48.174;11.756;2024-03-08T07:38:12;5.50;70.40
10233;DHT22;5161;48.174;11.756;2024-03-08T07:40:38;5.50;68.00
10233;DHT22;5161;48.174;11.756;2024-03-08T07:43:07;5.50;69.80
10233;DHT22;5161;48.174;11.756;2024-03-08T07:45:32;5.50;70.10
10233;DHT22;5161;48.174;11.756;2024-03-08T07:47:58;5.50;70.70
10233;DHT22;5161;48.174;11.756;2024-03-08T07:50:23;5.50;70.50
10233;DHT22;5161;48.174;11.756;2024-03-08T07:52:49;5.40;70.10
10233;DHT22;5161;48.174;11.756;2024-03-08T07:55:15;5.50;70.50
10233;DHT22;5161;48.174;11.756;2024-03-08T07:57:41;5.50;70.30
10233;DHT22;5161;48.174;11.756;2024-03-08T08:00:08;5.50;70.20
10233;DHT22;5161;48.174;11.756;2024-03-08T08:02:35;5.50;70.10
10233;DHT22;5161;48.174;11.756;2024-03-08T08:05:01;5.50;69.60
10233;DHT22;5161;48.174;11.756;2024-03-08T08:07:27;5.50;69.50
10233;DHT22;5161;48.174;11.756;2024-03-08T08:09:53;5.50;70.00
10233;DHT22;5161;48.174;11.756;2024-03-08T08:12:18;5.50;70.10
10233;DHT22;5161;48.174;11.756;2024-03-08T08:14:44;5.50;70.40
10233;DHT22;5161;48.174;11.756;2024-03-08T08:17:09;5.50;70.70
10233;DHT22;5161;48.174;11.756;2024-03-08T08:19:35;5.60;70.80
10233;DHT22;5161;48.174;11.756;2024-03-08T08:22:03;5.60;71.20
10233;DHT22;5161;48.174;11.756;2024-03-08T08:24:29;5.60;69.60
10233;DHT22;5161;48.174;11.756;2024-03-08T08:26:55;5.70;71.30
10233;DHT22;5161;48.174;11.756;2024-03-08T08:29:21;5.70;71.40
10233;DHT22;5161;48.174;11.756;2024-03-08T08:31:47;5.70;71.20
10233;DHT22;5161;48.174;11.756;2024-03-08T08:34:12;5.70;71.20
10233;DHT22;5161;48.174;11.756;2024-03-08T08:36:39;5.60;70.50
10233;DHT22;5161;48.174;11.756;2024-03-08T08:39:05;5.60;70.40
10233;DHT22;5161;48.174;11.756;2024-03-08T08:41:37;5.60;69.30
10233;DHT22;5161;48.174;11.756;2024-03-08T08:44:03;5.70;70.30
10233;DHT22;5161;48.174;11.756;2024-03-08T08:46:29;5.60;70.30
10233;DHT22;5161;48.174;11.756;2024-03-08T08:48:54;5.80;71.20
10233;DHT22;5161;48.174;11.756;2024-03-08T08:51:20;5.80;71.30
10233;DHT22;5161;48.174;11.756;2024-03-08T08:53:46;5.80;70.90
10233;DHT22;5161;48.174;11.756;2024-03-08T08:56:13;5.80;70.50
10233;DHT22;5161;48.174;11.756;2024-03-08T08:58:42;5.80;71.00
10233;DHT22;5161;48.174;11.756;2024-03-08T09:01:08;5.90;70.20
10233;DHT22;5161;48.174;11.756;2024-03-08T09:03:38;6.00;71.90
10233;DHT22;5161;48.174;11.756;2024-03-08T09:06:07;6.00;71.20
10233;DHT22;5161;48.174;11.756;2024-03-08T09:08:36;6.00;71.50
10233;DHT22;5161;48.174;11.756;2024-03-08T09:11:02;6.10;72.20
10233;DHT22;5161;48.174;11.756;2024-03-08T09:13:28;6.10;72.90
10233;DHT22;5161;48.174;11.756;2024-03-08T09:15:53;6.10;72.80
10233;DHT22;5161;48.174;11.756;2024-03-08T09:18:19;6.10;72.50
10233;DHT22;5161;48.174;11.756;2024-03-08T09:20:45;6.20;72.90
10233;DHT22;5161;48.174;11.756;2024-03-08T09:23:10;6.20;73.00
10233;DHT22;5161;48.174;11.756;2024-03-08T09:25:36;6.30;74.00
10233;DHT22;5161;48.174;11.756;2024-03-08T09:28:02;6.20;73.50
10233;DHT22;5161;48.174;11.756;2024-03-08T09:30:27;6.20;73.20
10233;DHT22;5161;48.174;11.756;2024-03-08T09:32:54;6.20;73.40
10233;DHT22;5161;48.174;11.756;2024-03-08T09:35:19;6.20;73.30
10233;DHT22;5161;48.174;11.756;2024-03-08T09:37:45;6.30;73.20
10233;DHT22;5161;48.174;11.756;2024-03-08T09:40:13;6.30;73.70
10233;DHT22;5161;48.174;11.756;2024-03-08T09:42:41;6.30;72.90
10233;DHT22;5161;48.174;11.756;2024-03-08T09:45:11;6.30;72.90
10233;DHT22;5161;48.174;11.756;2024-03-08T09:47:39;6.40;71.60
10233;DHT22;5161;48.174;11.756;2024-03-08T09:50:09;6.30;71.20
10233;DHT22;5161;48.174;11.756;2024-03-08T09:52:38;6.50;72.20
10233;DHT22;5161;48.174;11.756;2024-03-08T09:55:05;6.50;73.80
10233;DHT22;5161;48.174;11.756;2024-03-08T09:57:32;6.60;73.40
10233;DHT22;5161;48.174;11.756;2024-03-08T09:59:59;6.60;73.70
10233;DHT22;5161;48.174;11.756;2024-03-08T10:02:24;6.70;74.60
10233;DHT22;5161;48.174;11.756;2024-03-08T10:04:51;6.70;74.90
10233;DHT22;5161;48.174;11.756;2024-03-08T10:07:18;6.70;74.40
10233;DHT22;5161;48.174;11.756;2024-03-08T10:09:44;6.80;74.80
10233;DHT22;5161;48.174;11.756;2024-03-08T10:12:18;6.80;75.20
10233;DHT22;5161;48.174;11.756;2024-03-08T10:14:45;6.90;75.70
10233;DHT22;5161;48.174;11.756;2024-03-08T10:17:12;7.00;76.50
10233;DHT22;5161;48.174;11.756;2024-03-08T10:19:37;7.00;76.80
10233;DHT22;5161;48.174;11.756;2024-03-08T10:22:04;7.00;76.60
10233;DHT22;5161;48.174;11.756;2024-03-08T10:24:31;7.10;76.70
10233;DHT22;5161;48.174;11.756;2024-03-08T10:27:00;7.20;76.40
10233;DHT22;5161;48.174;11.756;2024-03-08T10:29:27;7.20;75.60
10233;DHT22;5161;48.174;11.756;2024-03-08T10:31:54;7.20;75.30
10233;DHT22;5161;48.174;11.756;2024-03-08T10:34:21;7.30;76.00
10233;DHT22;5161;48.174;11.756;2024-03-08T10:36:50;7.20;74.50
10233;DHT22;5161;48.174;11.756;2024-03-08T10:39:25;7.30;76.30
10233;DHT22;5161;48.174;11.756;2024-03-08T10:41:59;7.30;74.80
10233;DHT22;5161;48.174;11.756;2024-03-08T10:49:40;7.40;76.10
10233;DHT22;5161;48.174;11.756;2024-03-08T10:52:09;7.40;74.60
10233;DHT22;5161;48.174;11.756;2024-03-08T10:54:37;7.50;76.70
10233;DHT22;5161;48.174;11.756;2024-03-08T10:57:06;7.60;76.50
10233;DHT22;5161;48.174;11.756;2024-03-08T10:59:34;7.60;74.70
10233;DHT22;5161;48.174;11.756;2024-03-08T11:02:00;7.70;75.70
10233;DHT22;5161;48.174;11.756;2024-03-08T11:04:26;7.70;74.90
10233;DHT22;5161;48.174;11.756;2024-03-08T11:07:03;7.70;75.20
10233;DHT22;5161;48.174;11.756;2024-03-08T11:09:34;7.80;75.60
10233;DHT22;5161;48.174;11.756;2024-03-08T11:12:36;7.90;73.60
10233;DHT22;5161;48.174;11.756;2024-03-08T11:15:10;7.90;74.10
10233;DHT22;5161;48.174;11.756;2024-03-08T11:22:49;8.00;74.50
10233;DHT22;5161;48.174;11.756;2024-03-08T11:25:40;8.10;74.90
10233;DHT22;5161;48.174;11.756;2024-03-08T11:28:19;8.20;74.60
10233;DHT22;5161;48.174;11.756;2024-03-08T11:30:46;8.20;73.10
10233;DHT22;5161;48.174;11.756;2024-03-08T11:33:15;8.20;72.90
10233;DHT22;5161;48.174;11.756;2024-03-08T11:35:42;8.30;73.60
10233;DHT22;5161;48.174;11.756;2024-03-08T11:38:08;8.40;73.70
10233;DHT22;5161;48.174;11.756;2024-03-08T11:40:35;8.50;73.90
10233;DHT22;5161;48.174;11.756;2024-03-08T11:43:01;8.40;72.50
10233;DHT22;5161;48.174;11.756;2024-03-08T11:45:35;8.50;73.80
10233;DHT22;5161;48.174;11.756;2024-03-08T11:48:02;8.60;71.60
10233;DHT22;5161;48.174;11.756;2024-03-08T11:50:29;8.70;73.50
10233;DHT22;5161;48.174;11.756;2024-03-08T11:53:01;8.70;72.70
10233;DHT22;5161;48.174;11.756;2024-03-08T11:55:28;8.80;72.60
10233;DHT22;5161;48.174;11.756;2024-03-08T11:58:04;8.80;71.20
10233;DHT22;5161;48.174;11.756;2024-03-08T12:00:30;8.90;73.50
10233;DHT22;5161;48.174;11.756;2024-03-08T12:03:07;9.00;68.70
10233;DHT22;5161;48.174;11.756;2024-03-08T12:05:34;9.00;71.20
10233;DHT22;5161;48.174;11.756;2024-03-08T12:08:02;9.10;69.50
10233;DHT22;5161;48.174;11.756;2024-03-08T12:10:28;9.30;72.00
10233;DHT22;5161;48.174;11.756;2024-03-08T12:12:56;9.50;72.80
10233;DHT22;5161;48.174;11.756;2024-03-08T12:15:25;9.70;68.70
10233;DHT22;5161;48.174;11.756;2024-03-08T12:17:52;9.80;67.90
10233;DHT22;5161;48.174;11.756;2024-03-08T12:20:22;10.00;67.70
10233;DHT22;5161;48.174;11.756;2024-03-08T12:22:49;10.10;70.80
10233;DHT22;5161;48.174;11.756;2024-03-08T12:25:17;10.30;69.50
10233;DHT22;5161;48.174;11.756;2024-03-08T12:27:43;10.50;68.80
10233;DHT22;5161;48.174;11.756;2024-03-08T12:30:26;10.70;67.20
10233;DHT22;5161;48.174;11.756;2024-03-08T12:32:59;10.80;65.40
10233;DHT22;5161;48.174;11.756;2024-03-08T12:35:27;10.80;67.40
10233;DHT22;5161;48.174;11.756;2024-03-08T12:37:54;10.90;64.90
10233;DHT22;5161;48.174;11.756;2024-03-08T12:40:27;10.90;64.90
10233;DHT22;5161;48.174;11.756;2024-03-08T12:42:54;11.00;64.00
10233;DHT22;5161;48.174;11.756;2024-03-08T12:45:20;11.00;63.10
10233;DHT22;5161;48.174;11.756;2024-03-08T12:47:52;11.10;66.70
10233;DHT22;5161;48.174;11.756;2024-03-08T12:50:21;11.30;68.70
10233;DHT22;5161;48.174;11.756;2024-03-08T12:52:48;11.40;63.90
10233;DHT22;5161;48.174;11.756;2024-03-08T12:55:18;11.50;65.90
10233;DHT22;5161;48.174;11.756;2024-03-08T12:57:44;11.50;63.20
10233;DHT22;5161;48.174;11.756;2024-03-08T13:00:10;11.50;62.80
10233;DHT22;5161;48.174;11.756;2024-03-08T13:02:45;11.40;63.60
10233;DHT22;5161;48.174;11.756;2024-03-08T13:05:10;11.50;67.10
10233;DHT22;5161;48.174;11.756;2024-03-08T13:07:36;11.70;65.60
10233;DHT22;5161;48.174;11.756;2024-03-08T13:10:03;11.70;62.20
10233;DHT22;5161;48.174;11.756;2024-03-08T13:12:30;11.70;60.60
10233;DHT22;5161;48.174;11.756;2024-03-08T13:14:55;11.80;64.40
10233;DHT22;5161;48.174;11.756;2024-03-08T13:17:21;11.80;61.30
10233;DHT22;5161;48.174;11.756;2024-03-08T13:19:48;11.80;60.70
10233;DHT22;5161;48.174;11.756;2024-03-08T13:22:13;11.80;64.30
10233;DHT22;5161;48.174;11.756;2024-03-08T13:24:42;12.00;64.30
10233;DHT22;5161;48.174;11.756;2024-03-08T13:27:08;12.00;62.10
10233;DHT22;5161;48.174;11.756;2024-03-08T13:29:48;12.10;61.40
10233;DHT22;5161;48.174;11.756;2024-03-08T13:32:17;12.20;61.30
10233;DHT22;5161;48.174;11.756;2024-03-08T13:34:46;12.20;62.00
10233;DHT22;5161;48.174;11.756;2024-03-08T13:37:12;12.30;63.10
10233;DHT22;5161;48.174;11.756;2024-03-08T13:39:41;12.50;65.40
10233;DHT22;5161;48.174;11.756;2024-03-08T13:42:10;12.60;62.40
10233;DHT22;5161;48.174;11.756;2024-03-08T13:44:44;12.60;62.10
10233;DHT22;5161;48.174;11.756;2024-03-08T13:47:15;12.60;64.40
10233;DHT22;5161;48.174;11.756;2024-03-08T13:49:40;12.70;65.80
10233;DHT22;5161;48.174;11.756;2024-03-08T13:52:06;12.90;65.50
10233;DHT22;5161;48.174;11.756;2024-03-08T13:54:34;13.00;62.10
10233;DHT22;5161;48.174;11.756;2024-03-08T13:57:00;13.00;63.10
10233;DHT22;5161;48.174;11.756;2024-03-08T13:59:26;13.10;60.70
10233;DHT22;5161;48.174;11.756;2024-03-08T14:01:55;12.90;60.90
10233;DHT22;5161;48.174;11.756;2024-03-08T14:04:21;12.90;59.60
10233;DHT22;5161;48.174;11.756;2024-03-08T14:06:46;12.80;60.00
10233;DHT22;5161;48.174;11.756;2024-03-08T14:09:12;12.80;59.10
10233;DHT22;5161;48.174;11.756;2024-03-08T14:11:43;12.70;58.50
10233;DHT22;5161;48.174;11.756;2024-03-08T14:14:10;12.70;60.20
10233;DHT22;5161;48.174;11.756;2024-03-08T14:16:36;12.70;62.00
10233;DHT22;5161;48.174;11.756;2024-03-08T14:19:02;12.90;62.40
10233;DHT22;5161;48.174;11.756;2024-03-08T14:21:31;12.90;60.20
10233;DHT22;5161;48.174;11.756;2024-03-08T14:23:57;12.90;62.10
10233;DHT22;5161;48.174;11.756;2024-03-08T14:26:22;13.10;59.70
10233;DHT22;5161;48.174;11.756;2024-03-08T14:28:48;13.10;61.60
10233;DHT22;5161;48.174;11.756;2024-03-08T14:31:17;13.20;62.90
10233;DHT22;5161;48.174;11.756;2024-03-08T14:33:44;13.30;59.10
10233;DHT22;5161;48.174;11.756;2024-03-08T14:36:14;13.10;58.80
10233;DHT22;5161;48.174;11.756;2024-03-08T14:38:42;13.00;58.30
10233;DHT22;5161;48.174;11.756;2024-03-08T14:41:07;12.80;58.00
10233;DHT22;5161;48.174;11.756;2024-03-08T14:43:33;12.90;59.90
10233;DHT22;5161;48.174;11.756;2024-03-08T14:45:59;13.00;59.80
10233;DHT22;5161;48.174;11.756;2024-03-08T14:48:24;13.10;61.70
10233;DHT22;5161;48.174;11.756;2024-03-08T14:50:50;13.10;57.60
10233;DHT22;5161;48.174;11.756;2024-03-08T14:53:16;13.00;57.40
10233;DHT22;5161;48.174;11.756;2024-03-08T14:55:42;12.90;57.10
10233;DHT22;5161;48.174;11.756;2024-03-08T14:58:08;12.80;58.90
10233;DHT22;5161;48.174;11.756;2024-03-08T15:00:34;12.90;57.40
10233;DHT22;5161;48.174;11.756;2024-03-08T15:03:01;12.70;57.90
10233;DHT22;5161;48.174;11.756;2024-03-08T15:05:30;12.70;57.60
10233;DHT22;5161;48.174;11.756;2024-03-08T15:07:57;12.70;57.90
10233;DHT22;5161;48.174;11.756;2024-03-08T15:10:26;12.70;57.20
10233;DHT22;5161;48.174;11.756;2024-03-08T15:12:52;12.60;57.90
10233;DHT22;5161;48.174;11.756;2024-03-08T15:15:21;12.80;59.30
10233;DHT22;5161;48.174;11.756;2024-03-08T15:17:48;12.90;59.10
10233;DHT22;5161;48.174;11.756;2024-03-08T15:20:14;13.00;59.10
10233;DHT22;5161;48.174;11.756;2024-03-08T15:22:46;13.00;59.10
10233;DHT22;5161;48.174;11.756;2024-03-08T15:25:12;12.90;59.00
10233;DHT22;5161;48.174;11.756;2024-03-08T15:27:42;12.80;56.50
10233;DHT22;5161;48.174;11.756;2024-03-08T15:30:08;12.60;56.70
10233;DHT22;5161;48.174;11.756;2024-03-08T15:32:45;12.40;57.40
10233;DHT22;5161;48.174;11.756;2024-03-08T15:35:11;12.60;59.00
10233;DHT22;5161;48.174;11.756;2024-03-08T15:37:40;12.60;58.20
10233;DHT22;5161;48.174;11.756;2024-03-08T15:40:14;12.50;57.60
10233;DHT22;5161;48.174;11.756;2024-03-08T15:45:17;12.60;58.90
10233;DHT22;5161;48.174;11.756;2024-03-08T15:47:43;12.60;58.70
10233;DHT22;5161;48.174;11.756;2024-03-08T15:50:10;12.50;58.40
10233;DHT22;5161;48.174;11.756;2024-03-08T15:52:39;12.40;57.80
10233;DHT22;5161;48.174;11.756;2024-03-08T15:55:08;12.20;58.10